Time;durP1;ratioP1;P1;durP2;ratioP2;P2;SDS_P1;SDS_P2;PMS_P1;PMS_P2;Temp;Humidity;BMP_temperature;BMP_pressure;BME280_temperature;BME280_humidity;BME280_pressure;Samples;Min_cycle;Max_cycle;Signal;HPM_P1;HPM_P2
2022/07/08 00:00:21;;;;;;;3.97;2.72;;;14.10;99.90;;;;;;5003556;28;20046;-67
2022/07/08 00:02:48;;;;;;;3.88;2.80;;;14.10;99.90;;;;;;5011964;28;20056;-68
2022/07/08 00:05:15;;;;;;;5.57;3.33;;;14.10;99.90;;;;;;5012055;28;20861;-67
2022/07/08 00:07:41;;;;;;;3.63;3.13;;;14.00;99.90;;;;;;5011975;28;20045;-67
2022/07/08 00:10:09;;;;;;;3.95;3.00;;;14.10;99.90;;;;;;5004115;28;20046;-67
2022/07/08 00:12:35;;;;;;;;;;;14.10;99.90;;;;;;5012340;28;20057;-67
2022/07/08 00:15:03;;;;;;;4.45;3.40;;;14.10;99.90;;;;;;5011511;28;19944;-67
2022/07/08 00:17:30;;;;;;;5.72;3.30;;;14.10;99.90;;;;;;5006830;28;20056;-68
2022/07/08 00:19:56;;;;;;;5.07;3.75;;;14.00;99.90;;;;;;5011494;28;20042;-68
2022/07/08 00:22:23;;;;;;;5.68;3.97;;;14.10;99.90;;;;;;5011861;28;20041;-68
2022/07/08 00:24:50;;;;;;;4.22;3.80;;;14.10;99.90;;;;;;5011393;28;20044;-67
2022/07/08 00:27:17;;;;;;;5.43;3.83;;;14.10;99.90;;;;;;5003263;28;20053;-68
2022/07/08 00:29:44;;;;;;;5.68;3.17;;;14.10;99.90;;;;;;5011694;28;20552;-68
2022/07/08 00:32:10;;;;;;;6.15;3.65;;;14.10;99.90;;;;;;5011445;28;20564;-68
2022/07/08 00:34:37;;;;;;;8.63;4.30;;;14.10;99.90;;;;;;5010100;28;20053;-68
2022/07/08 00:37:05;;;;;;;5.13;3.83;;;14.10;99.90;;;;;;5003710;28;20045;-68
2022/07/08 00:39:32;;;;;;;5.95;4.00;;;14.10;99.90;;;;;;5011868;28;20406;-67
2022/07/08 00:42:00;;;;;;;5.93;3.45;;;14.10;99.90;;;;;;5011391;28;20041;-67
2022/07/08 00:44:26;;;;;;;8.57;4.25;;;14.00;99.90;;;;;;5010458;28;20050;-68
2022/07/08 00:46:53;;;;;;;6.65;4.53;;;14.00;99.90;;;;;;5011650;28;20053;-67
2022/07/08 00:49:20;;;;;;;12.48;4.53;;;14.00;99.90;;;;;;5011767;28;20045;-68
2022/07/08 00:51:48;;;;;;;8.07;4.88;;;13.90;99.90;;;;;;5010918;28;20096;-67
2022/07/08 00:54:18;;;;;;;11.73;4.72;;;13.90;99.90;;;;;;5008492;28;20050;-67
2022/07/08 00:56:45;;;;;;;7.05;5.07;;;13.90;99.90;;;;;;5011357;28;20045;-67
2022/07/08 00:59:12;;;;;;;12.80;4.95;;;13.90;99.90;;;;;;5011730;28;20470;-67
2022/07/08 01:01:40;;;;;;;7.03;4.38;;;13.80;99.90;;;;;;5004582;28;20491;-67
2022/07/08 01:04:07;;;;;;;7.75;4.65;;;13.90;99.90;;;;;;5011584;28;20054;-67
2022/07/08 01:06:34;;;;;;;;;;;13.90;99.90;;;;;;5011786;28;20050;-67
2022/07/08 01:09:01;;;;;;;8.98;4.93;;;13.90;99.90;;;;;;5002960;28;19925;-67
2022/07/08 01:11:28;;;;;;;9.60;4.93;;;13.90;99.90;;;;;;5010842;28;20487;-67
2022/07/08 01:13:56;;;;;;;6.10;4.53;;;13.90;99.90;;;;;;5011337;28;20050;-67
2022/07/08 01:16:22;;;;;;;;;;;13.90;99.90;;;;;;5011684;28;20054;-67
2022/07/08 01:18:49;;;;;;;8.98;5.10;;;13.90;99.90;;;;;;4992314;28;20293;-67
2022/07/08 01:21:16;;;;;;;308.23;16.90;;;13.90;99.90;;;;;;5011245;28;20426;-67
2022/07/08 01:23:43;;;;;;;36.40;6.28;;;13.90;99.90;;;;;;5011204;28;20549;-67
2022/07/08 01:26:11;;;;;;;10.02;5.65;;;13.90;99.90;;;;;;5009166;28;20053;-67
2022/07/08 01:28:40;;;;;;;8.80;5.93;;;13.90;99.90;;;;;;4993435;28;20046;-67
2022/07/08 01:31:07;;;;;;;9.38;5.90;;;13.90;99.90;;;;;;5010996;28;20133;-67
2022/07/08 01:33:34;;;;;;;10.52;7.43;;;13.90;99.90;;;;;;5011133;28;20536;-67
2022/07/08 01:36:01;;;;;;;9.77;6.22;;;13.90;99.90;;;;;;5009045;28;20054;-68
2022/07/08 01:38:28;;;;;;;10.50;5.55;;;13.80;99.90;;;;;;5006071;28;20096;-67
2022/07/08 01:40:55;;;;;;;11.90;6.57;;;13.90;99.90;;;;;;5010839;28;20046;-67
2022/07/08 01:43:22;;;;;;;11.75;7.10;;;13.80;99.90;;;;;;5011261;28;20072;-68
2022/07/08 01:45:49;;;;;;;14.55;7.25;;;13.80;99.90;;;;;;5010340;28;20042;-67
2022/07/08 01:48:16;;;;;;;10.65;7.80;;;13.70;99.90;;;;;;5011180;28;20379;-68
2022/07/08 01:50:43;;;;;;;19.48;8.70;;;13.70;99.90;;;;;;5010748;28;20061;-67
2022/07/08 01:53:11;;;;;;;16.38;7.30;;;13.70;99.90;;;;;;5011029;28;20046;-67
2022/07/08 01:55:38;;;;;;;8.93;6.13;;;13.70;99.90;;;;;;5004494;28;20058;-67
2022/07/08 01:58:05;;;;;;;9.57;6.85;;;13.70;99.90;;;;;;5003124;28;20051;-67
2022/07/08 02:00:32;;;;;;;7.97;5.82;;;13.70;99.90;;;;;;5010631;28;20061;-68
2022/07/08 02:02:59;;;;;;;9.15;5.55;;;13.60;99.90;;;;;;5011261;28;20038;-67
2022/07/08 02:05:28;;;;;;;5.82;4.50;;;13.60;99.90;;;;;;5012619;28;20486;-68
2022/07/08 02:07:55;;;;;;;6.18;3.90;;;13.60;99.90;;;;;;5014358;28;20426;-67
2022/07/08 02:10:22;;;;;;;7.57;4.63;;;13.70;99.90;;;;;;5014091;28;20049;-67
2022/07/08 02:12:51;;;;;;;5.25;4.63;;;13.80;99.90;;;;;;5008969;28;20043;-67
2022/07/08 02:15:18;;;;;;;8.20;4.70;;;13.80;99.90;;;;;;5013856;28;20057;-67
2022/07/08 02:17:45;;;;;;;8.13;5.43;;;13.70;99.90;;;;;;5014207;28;20046;-67
2022/07/08 02:20:13;;;;;;;8.50;5.60;;;13.70;99.90;;;;;;5013775;28;20522;-67
2022/07/08 02:22:41;;;;;;;7.65;5.38;;;13.70;99.90;;;;;;5010813;28;20057;-68
2022/07/08 02:25:08;;;;;;;8.07;5.38;;;13.70;99.90;;;;;;5013994;28;20050;-67
2022/07/08 02:27:35;;;;;;;13.55;6.03;;;13.70;99.90;;;;;;5014015;28;20494;-67
2022/07/08 02:30:01;;;;;;;9.52;7.20;;;13.80;99.90;;;;;;5013651;28;20053;-67
2022/07/08 02:32:28;;;;;;;10.95;7.75;;;13.70;99.90;;;;;;5010570;28;20100;-67
2022/07/08 02:34:55;;;;;;;14.05;8.80;;;13.70;99.90;;;;;;5013908;28;20538;-68
2022/07/08 02:37:22;;;;;;;12.95;8.68;;;13.70;99.90;;;;;;5013845;28;20049;-67
2022/07/08 02:39:48;;;;;;;11.70;8.23;;;13.70;99.90;;;;;;5013615;28;20045;-67
2022/07/08 02:42:15;;;;;;;13.23;8.90;;;13.60;99.90;;;;;;5008131;28;20120;-67
2022/07/08 02:44:42;;;;;;;11.60;7.95;;;13.60;99.90;;;;;;5013632;28;20046;-65
2022/07/08 02:47:09;;;;;;;12.60;7.80;;;13.70;99.90;;;;;;5076414;22;20056;-62
2022/07/08 02:49:35;;;;;;;10.68;8.00;;;13.70;99.90;;;;;;5072788;28;20052;-62
2022/07/08 02:52:02;;;;;;;13.60;8.98;;;13.70;99.90;;;;;;5067273;28;20090;-62
2022/07/08 02:54:29;;;;;;;17.40;10.02;;;13.60;99.90;;;;;;5071191;28;20041;-62
2022/07/08 02:56:56;;;;;;;14.50;9.13;;;13.60;99.90;;;;;;5072876;28;20051;-62
2022/07/08 02:59:23;;;;;;;15.30;8.32;;;13.60;99.90;;;;;;5073288;28;20048;-63
2022/07/08 03:01:50;;;;;;;13.75;7.60;;;13.60;99.90;;;;;;5072819;28;20109;-62
2022/07/08 03:04:17;;;;;;;12.23;7.80;;;13.50;99.90;;;;;;5055330;28;20449;-62
2022/07/08 03:06:43;;;;;;;18.77;8.02;;;13.50;99.90;;;;;;5070186;28;20386;-62
2022/07/08 03:09:10;;;;;;;14.48;9.07;;;13.50;99.90;;;;;;5073042;28;20098;-62
2022/07/08 03:11:37;;;;;;;15.57;8.80;;;13.50;99.90;;;;;;5067264;28;20511;-62
2022/07/08 03:14:04;;;;;;;12.95;8.68;;;13.50;99.90;;;;;;5052822;28;20041;-62
2022/07/08 03:16:32;;;;;;;15.02;9.15;;;13.50;99.90;;;;;;5052677;28;20053;-62
2022/07/08 03:18:59;;;;;;;;;;;13.50;99.90;;;;;;5049489;28;20572;-62
2022/07/08 03:21:26;;;;;;;14.80;9.82;;;13.50;99.90;;;;;;5055131;28;19924;-62
2022/07/08 03:23:52;;;;;;;17.77;10.23;;;13.50;99.90;;;;;;5070323;28;20044;-62
2022/07/08 03:26:19;;;;;;;14.15;10.07;;;13.50;99.90;;;;;;5072673;28;20053;-62
2022/07/08 03:28:46;;;;;;;16.98;10.40;;;13.40;99.90;;;;;;5055912;28;20041;-62
2022/07/08 03:31:13;;;;;;;18.05;10.60;;;13.50;99.90;;;;;;5063793;28;20040;-62
2022/07/08 03:33:40;;;;;;;19.45;12.52;;;13.40;99.90;;;;;;5072541;28;20054;-62
2022/07/08 03:36:07;;;;;;;24.88;13.38;;;13.50;99.90;;;;;;5072419;28;20408;-62
2022/07/08 03:38:35;;;;;;;19.48;11.85;;;13.40;99.90;;;;;;5061406;28;20075;-62
2022/07/08 03:41:20;;;;;;;18.52;12.32;;;13.50;99.90;;;;;;5063540;28;20064;-62
2022/07/08 03:43:51;;;;;;;18.25;12.65;;;13.50;99.90;;;;;;5072380;28;20435;-62
2022/07/08 03:46:18;;;;;;;21.58;12.48;;;13.50;99.90;;;;;;5068627;28;20036;-62
2022/07/08 03:48:45;;;;;;;;;;;13.50;99.90;;;;;;5059099;28;20103;-62
2022/07/08 03:51:13;;;;;;;25.55;13.68;;;13.50;99.90;;;;;;5071817;28;20336;-62
2022/07/08 03:53:41;;;;;;;21.13;13.18;;;13.40;99.90;;;;;;5072160;28;20044;-62
2022/07/08 03:56:08;;;;;;;21.38;13.60;;;13.40;99.90;;;;;;5062249;28;20045;-62
2022/07/08 03:58:35;;;;;;;16.85;12.25;;;13.50;99.90;;;;;;5068061;28;20045;-62
2022/07/08 04:01:03;;;;;;;21.15;13.25;;;13.50;99.90;;;;;;5071440;28;20488;-62
2022/07/08 04:03:30;;;;;;;23.73;13.07;;;13.60;99.90;;;;;;5071974;28;20048;-62
2022/07/08 04:05:57;;;;;;;19.83;12.18;;;13.60;99.90;;;;;;5059207;28;20404;-62
2022/07/08 04:08:24;;;;;;;16.45;7.32;;;13.50;99.90;;;;;;5066127;28;20036;-62
2022/07/08 04:10:51;;;;;;;;;;;13.30;99.90;;;;;;5071871;28;20036;-61
2022/07/08 04:13:17;;;;;;;10.55;4.53;;;12.90;99.90;;;;;;5069149;28;19927;-62
2022/07/08 04:15:50;;;;;;;17.42;4.65;;;12.50;99.90;;;;;;5057416;28;20092;-61
2022/07/08 04:18:17;;;;;;;12.00;4.82;;;12.20;99.90;;;;;;5071648;28;20400;-62
2022/07/08 04:20:44;;;;;;;12.32;4.32;;;11.90;99.90;;;;;;5071277;28;20048;-61
2022/07/08 04:23:11;;;;;;;12.35;4.43;;;11.80;99.90;;;;;;5069912;28;20102;-62
2022/07/08 04:25:38;;;;;;;12.27;3.78;;;11.70;99.90;;;;;;5055416;28;20103;-62
2022/07/08 04:28:05;;;;;;;10.85;3.42;;;11.50;99.90;;;;;;5055158;28;20048;-62
2022/07/08 04:30:32;;;;;;;10.45;3.72;;;11.50;99.90;;;;;;5050551;28;20086;-62
2022/07/08 04:32:58;;;;;;;12.48;4.78;;;11.40;99.90;;;;;;5044721;28;20051;-62
2022/07/08 04:35:25;;;;;;;9.30;3.50;;;11.40;99.90;;;;;;5043235;28;20490;-62
2022/07/08 04:37:52;;;;;;;7.85;5.45;;;11.40;99.90;;;;;;5040321;28;20044;-61
2022/07/08 04:40:26;;;;;;;17.52;5.13;;;11.50;99.90;;;;;;5039522;28;20041;-62
2022/07/08 04:42:53;;;;;;;13.40;4.70;;;11.60;99.90;;;;;;5050667;28;20041;-62
2022/07/08 04:45:20;;;;;;;13.02;4.50;;;11.60;99.90;;;;;;5031116;28;20041;-62
2022/07/08 04:47:46;;;;;;;14.30;5.35;;;11.60;99.90;;;;;;5031513;28;20053;-62
2022/07/08 04:50:13;;;;;;;14.50;4.60;;;11.60;99.90;;;;;;5040356;28;20048;-61
2022/07/08 04:52:40;;;;;;;9.40;4.50;;;11.70;99.90;;;;;;5063023;28;20037;-62
2022/07/08 04:55:08;;;;;;;10.75;4.70;;;11.70;99.90;;;;;;5071271;28;20052;-62
2022/07/08 04:57:34;;;;;;;10.07;4.90;;;11.80;99.90;;;;;;5050818;28;20433;-62
2022/07/08 05:00:02;;;;;;;10.85;5.10;;;11.80;99.90;;;;;;5050299;28;20034;-62
2022/07/08 05:02:29;;;;;;;14.95;4.40;;;11.80;99.90;;;;;;5043016;28;20042;-62
2022/07/08 05:04:56;;;;;;;12.25;5.30;;;11.80;99.90;;;;;;5031115;28;20049;-62
2022/07/08 05:07:22;;;;;;;8.68;4.95;;;11.80;99.90;;;;;;5041012;28;20041;-62
2022/07/08 05:09:49;;;;;;;11.70;5.32;;;11.80;99.90;;;;;;5045560;28;20048;-62
2022/07/08 05:12:16;;;;;;;11.95;4.82;;;11.90;99.90;;;;;;5040537;28;20053;-62
2022/07/08 05:14:43;;;;;;;11.77;5.35;;;11.80;99.90;;;;;;5023790;28;20442;-62
2022/07/08 05:17:09;;;;;;;10.57;4.47;;;11.90;99.90;;;;;;5042284;28;20041;-62
2022/07/08 05:19:36;;;;;;;13.27;5.05;;;11.90;99.90;;;;;;5036518;28;20494;-62
2022/07/08 05:22:03;;;;;;;8.93;5.10;;;11.90;99.90;;;;;;5037628;28;20090;-62
2022/07/08 05:24:30;;;;;;;11.30;4.40;;;11.90;99.90;;;;;;5038855;28;20053;-62
2022/07/08 05:26:57;;;;;;;10.88;4.95;;;11.90;99.90;;;;;;5040511;28;20041;-62
2022/07/08 05:29:23;;;;;;;10.30;4.40;;;11.90;99.90;;;;;;5035346;28;20042;-62
2022/07/08 05:31:53;;;;;;;10.60;4.55;;;11.90;99.90;;;;;;5054673;28;20044;-62
2022/07/08 05:34:21;;;;;;;11.95;4.50;;;11.90;99.90;;;;;;5055434;28;20033;-62
2022/07/08 05:36:48;;;;;;;10.07;4.95;;;11.90;99.90;;;;;;5048630;28;20120;-62
2022/07/08 05:39:15;;;;;;;9.55;4.80;;;11.90;99.90;;;;;;5057701;28;20059;-62
2022/07/08 05:41:42;;;;;;;16.15;6.22;;;11.90;99.90;;;;;;5060734;28;20041;-62
2022/07/08 05:44:08;;;;;;;15.20;5.30;;;12.00;99.90;;;;;;5044037;28;20033;-62
2022/07/08 05:46:35;;;;;;;14.75;5.53;;;12.00;99.90;;;;;;5054227;28;20047;-62
2022/07/08 05:49:02;;;;;;;19.13;5.75;;;12.00;99.90;;;;;;5054776;28;20124;-62
2022/07/08 05:51:29;;;;;;;12.32;4.68;;;12.10;99.90;;;;;;5052337;28;20163;-62
2022/07/08 05:53:55;;;;;;;15.10;5.82;;;12.10;99.90;;;;;;5050429;28;20371;-62
2022/07/08 05:56:22;;;;;;;13.25;5.97;;;12.10;99.90;;;;;;5046735;28;20052;-62
2022/07/08 05:58:49;;;;;;;12.02;5.20;;;12.10;99.90;;;;;;5044034;28;20045;-62
2022/07/08 06:01:16;;;;;;;15.88;5.40;;;12.20;99.90;;;;;;5053950;28;20060;-62
2022/07/08 06:03:43;;;;;;;13.52;5.88;;;12.20;99.90;;;;;;5045850;28;20045;-62
2022/07/08 06:06:10;;;;;;;12.32;5.80;;;12.30;99.90;;;;;;5046957;28;20397;-62
2022/07/08 06:08:37;;;;;;;11.57;5.15;;;12.30;99.90;;;;;;5043730;28;20037;-62
2022/07/08 06:11:04;;;;;;;12.40;4.70;;;12.30;99.90;;;;;;5041192;28;20056;-61
2022/07/08 06:13:31;;;;;;;14.10;5.32;;;12.30;99.90;;;;;;5065643;28;20040;-62
2022/07/08 06:15:57;;;;;;;14.95;6.03;;;12.40;99.90;;;;;;5041846;28;20532;-62
2022/07/08 06:18:24;;;;;;;9.88;3.90;;;12.40;99.90;;;;;;5033834;28;20041;-62
2022/07/08 06:20:51;;;;;;;;;;;12.50;99.90;;;;;;5044854;28;20041;-62
2022/07/08 06:23:18;;;;;;;13.13;3.72;;;12.60;99.90;;;;;;5047875;28;20290;-62
2022/07/08 06:25:45;;;;;;;7.00;4.75;;;12.80;99.90;;;;;;5047821;28;20494;-62
2022/07/08 06:28:11;;;;;;;9.48;4.95;;;13.00;99.90;;;;;;5052318;28;20052;-62
2022/07/08 06:30:38;;;;;;;9.02;4.25;;;13.10;99.90;;;;;;5058605;28;20033;-62
2022/07/08 06:33:05;;;;;;;9.25;4.15;;;13.10;99.90;;;;;;5053491;28;20124;-62
2022/07/08 06:35:33;;;;;;;10.60;4.32;;;13.00;99.90;;;;;;5050295;28;20043;-62
2022/07/08 06:37:59;;;;;;;10.30;4.50;;;13.00;99.90;;;;;;5046383;28;20041;-62
2022/07/08 06:40:27;;;;;;;15.55;4.35;;;13.00;99.90;;;;;;5048598;28;20064;-62
2022/07/08 06:42:54;;;;;;;;;;;12.90;99.90;;;;;;5044662;28;20392;-62
2022/07/08 06:45:21;;;;;;;8.88;4.57;;;12.90;99.90;;;;;;5041031;28;19928;-62
2022/07/08 06:47:47;;;;;;;8.60;4.53;;;12.90;99.90;;;;;;5055586;28;20041;-61
2022/07/08 06:50:14;;;;;;;10.30;5.25;;;12.90;99.90;;;;;;5065567;28;20056;-61
2022/07/08 06:52:41;;;;;;;9.30;4.50;;;12.90;99.90;;;;;;5073352;28;20075;-61
2022/07/08 06:55:08;;;;;;;10.32;4.43;;;13.00;99.90;;;;;;5069897;28;20052;-61
2022/07/08 06:57:35;;;;;;;10.25;4.57;;;13.00;99.90;;;;;;5064749;28;20052;-62
2022/07/08 07:00:04;;;;;;;9.90;4.25;;;13.00;99.90;;;;;;5072679;28;20119;-61
2022/07/08 07:02:48;;;;;;;13.05;4.78;;;13.00;99.90;;;;;;5064613;28;20473;-62
2022/07/08 07:05:17;;;;;;;8.18;5.18;;;13.10;99.90;;;;;;5064481;28;20044;-62
2022/07/08 07:07:44;;;;;;;8.93;4.20;;;13.20;99.90;;;;;;5072657;28;20048;-61
2022/07/08 07:10:11;;;;;;;9.93;4.40;;;13.30;99.90;;;;;;5072455;28;20128;-62
2022/07/08 07:12:37;;;;;;;8.15;4.78;;;13.40;99.90;;;;;;5060971;28;20060;-61
2022/07/08 07:15:05;;;;;;;13.10;4.55;;;13.50;99.90;;;;;;5052556;28;20064;-62
2022/07/08 07:17:31;;;;;;;10.45;5.30;;;13.60;99.90;;;;;;5052448;28;20049;-61
2022/07/08 07:19:58;;;;;;;9.80;4.05;;;13.60;99.90;;;;;;5052152;28;20049;-62
2022/07/08 07:22:26;;;;;;;12.90;5.15;;;13.60;99.90;;;;;;5058942;28;20045;-62
2022/07/08 07:24:53;;;;;;;7.07;3.75;;;13.60;99.90;;;;;;5070971;28;20044;-62
2022/07/08 07:27:20;;;;;;;14.70;6.07;;;13.60;99.90;;;;;;5072401;28;20141;-61
2022/07/08 07:29:47;;;;;;;8.93;4.72;;;13.70;99.90;;;;;;5062215;28;20045;-62
2022/07/08 07:32:13;;;;;;;10.82;4.70;;;13.70;99.90;;;;;;5063699;28;20060;-61
2022/07/08 07:34:40;;;;;;;12.40;4.50;;;13.80;99.90;;;;;;5072355;28;20044;-62
2022/07/08 07:37:07;;;;;;;10.25;4.40;;;13.90;99.90;;;;;;5072037;28;20122;-62
2022/07/08 07:39:34;;;;;;;;;;;14.10;99.90;;;;;;5066304;28;20052;-62
2022/07/08 07:42:02;;;;;;;11.20;4.95;;;14.20;99.90;;;;;;5063400;28;19928;-62
2022/07/08 07:44:28;;;;;;;8.98;4.03;;;14.40;99.90;;;;;;5071918;28;20040;-62
2022/07/08 07:46:55;;;;;;;8.95;4.30;;;14.50;99.90;;;;;;5047137;28;20042;-61
2022/07/08 07:49:22;;;;;;;12.27;4.82;;;14.40;99.90;;;;;;5052959;28;20448;-61
2022/07/08 07:51:49;;;;;;;8.32;4.15;;;14.50;99.90;;;;;;5051481;28;20382;-62
2022/07/08 07:54:15;;;;;;;11.85;4.45;;;14.50;99.90;;;;;;5052093;28;20378;-62
2022/07/08 07:56:42;;;;;;;9.85;4.07;;;14.60;99.90;;;;;;5055158;28;20044;-61
2022/07/08 07:59:09;;;;;;;9.38;3.80;;;14.60;99.90;;;;;;5064627;28;20397;-61
2022/07/08 08:01:35;;;;;;;6.88;3.28;;;14.70;99.90;;;;;;5070813;28;20040;-62
2022/07/08 08:04:02;;;;;;;11.85;4.03;;;14.70;99.90;;;;;;5053881;28;20398;-61
2022/07/08 08:06:29;;;;;;;10.35;3.83;;;14.80;99.90;;;;;;5061544;28;20041;-61
2022/07/08 08:08:57;;;;;;;5.55;3.30;;;14.80;99.90;;;;;;5063460;28;20397;-62
2022/07/08 08:11:24;;;;;;;9.15;3.35;;;14.80;99.90;;;;;;5071476;28;20044;-61
2022/07/08 08:13:51;;;;;;;11.77;3.70;;;14.80;99.90;;;;;;5048027;28;20448;-62
2022/07/08 08:16:17;;;;;;;9.52;3.35;;;14.70;99.90;;;;;;5064557;28;20078;-61
2022/07/08 08:18:44;;;;;;;13.07;3.70;;;14.70;99.90;;;;;;5071231;28;20037;-61
2022/07/08 08:21:11;;;;;;;7.75;3.13;;;14.70;99.90;;;;;;5048270;28;20045;-62
2022/07/08 08:23:38;;;;;;;7.25;2.70;;;14.80;99.90;;;;;;5058376;28;20044;-62
2022/07/08 08:26:05;;;;;;;6.55;2.88;;;15.10;99.90;;;;;;5051023;28;20106;-61
2022/07/08 08:28:31;;;;;;;8.82;3.50;;;15.30;99.90;;;;;;5051391;28;20060;-62
2022/07/08 08:30:59;;;;;;;7.20;2.67;;;15.40;99.90;;;;;;5056403;28;20036;-61
2022/07/08 08:33:26;;;;;;;6.50;2.28;;;15.40;99.90;;;;;;5066446;28;20519;-62
2022/07/08 08:35:53;;;;;;;5.63;2.53;;;15.30;99.90;;;;;;5071440;28;20507;-62
2022/07/08 08:38:20;;;;;;;9.60;2.85;;;15.40;99.90;;;;;;5058372;28;20519;-62
2022/07/08 08:40:47;;;;;;;3.83;1.63;;;15.40;99.90;;;;;;5062634;28;20041;-62
2022/07/08 08:43:14;;;;;;;12.93;2.20;;;15.40;99.90;;;;;;5071231;28;20504;-62
2022/07/08 08:45:44;;;;;;;4.68;1.67;;;15.30;99.90;;;;;;5077145;22;20064;-69
2022/07/08 08:48:12;;;;;;;5.95;1.83;;;15.30;99.90;;;;;;5036489;28;20128;-67
2022/07/08 08:50:53;;;;;;;4.63;1.95;;;15.40;99.90;;;;;;5030470;28;20053;-67
2022/07/08 08:53:27;;;;;;;6.05;2.25;;;15.60;99.90;;;;;;5042994;28;20048;-67
2022/07/08 08:55:55;;;;;;;9.45;2.55;;;15.50;99.90;;;;;;5047316;28;20413;-66
2022/07/08 08:58:22;;;;;;;5.68;1.80;;;15.50;99.90;;;;;;5030734;28;20049;-68
2022/07/08 09:00:49;;;;;;;5.68;1.77;;;15.30;99.90;;;;;;5022325;28;20042;-67
2022/07/08 09:03:16;;;;;;;4.88;1.50;;;15.20;99.90;;;;;;5031265;28;20684;-67
2022/07/08 09:05:43;;;;;;;4.88;1.67;;;15.00;99.90;;;;;;5031208;28;20096;-67
2022/07/08 09:08:10;;;;;;;6.93;1.77;;;15.00;99.90;;;;;;5026383;28;20046;-67
2022/07/08 09:10:36;;;;;;;14.68;1.90;;;14.90;99.90;;;;;;5026973;28;20057;-66
2022/07/08 09:13:12;;;;;;;2.63;1.80;;;14.80;99.90;;;;;;5033192;28;20383;-65
2022/07/08 09:15:39;;;;;;;6.53;1.80;;;14.80;99.90;;;;;;5034221;28;20056;-65
2022/07/08 09:18:11;;;;;;;4.13;1.83;;;14.60;99.90;;;;;;5026853;28;20060;-67
2022/07/08 09:20:46;;;;;;;6.47;2.10;;;14.60;99.90;;;;;;5034453;28;20049;-66
2022/07/08 09:23:15;;;;;;;4.78;1.80;;;14.60;99.90;;;;;;5034491;28;20064;-68
2022/07/08 09:25:42;;;;;;;6.47;1.95;;;14.70;99.90;;;;;;5033776;28;20037;-68
2022/07/08 09:28:09;;;;;;;4.18;1.50;;;14.60;99.90;;;;;;5027401;28;20049;-68
2022/07/08 09:30:36;;;;;;;5.78;1.77;;;14.70;99.90;;;;;;5034642;28;20490;-69
2022/07/08 09:33:03;;;;;;;4.95;1.90;;;14.80;99.90;;;;;;5034892;28;20752;-69
2022/07/08 09:35:39;;;;;;;4.60;1.67;;;15.00;99.90;;;;;;5027170;28;20050;-69
2022/07/08 09:38:08;;;;;;;6.65;1.80;;;15.20;99.90;;;;;;5018160;28;20344;-68
2022/07/08 09:40:35;;;;;;;7.72;2.20;;;15.50;99.90;;;;;;5033989;28;20045;-68
2022/07/08 09:43:02;;;;;;;;;;;15.90;99.90;;;;;;5034507;28;20152;-68
2022/07/08 09:45:33;;;;;;;9.40;1.77;;;16.20;99.90;;;;;;5027540;28;19928;-67
2022/07/08 09:48:01;;;;;;;9.38;2.13;;;16.50;99.90;;;;;;5033820;28;20046;-67
2022/07/08 09:50:32;;;;;;;5.88;1.60;;;16.70;99.90;;;;;;5034088;28;20045;-66
2022/07/08 09:53:25;;;;;;;5.38;2.20;;;16.90;99.90;;;;;;5016467;28;20561;-72
2022/07/08 09:55:57;;;;;;;4.63;1.60;;;16.90;99.90;;;;;;5026075;28;20048;-72
2022/07/08 09:58:25;;;;;;;7.32;1.85;;;16.90;99.90;;;;;;5034200;28;20045;-72
2022/07/08 10:00:54;;;;;;;5.45;1.90;;;16.90;99.90;;;;;;5033864;28;20049;-71
2022/07/08 10:03:22;;;;;;;9.63;2.20;;;16.70;99.90;;;;;;5027887;28;20045;-72
2022/07/08 10:05:50;;;;;;;13.40;1.90;;;16.50;99.90;;;;;;5032255;28;20052;-72
2022/07/08 10:08:18;;;;;;;7.68;2.13;;;16.40;99.90;;;;;;5033361;28;20052;-72
2022/07/08 10:10:46;;;;;;;4.22;1.60;;;16.50;99.90;;;;;;5030712;28;20049;-72
2022/07/08 10:13:15;;;;;;;6.55;1.88;;;16.60;99.90;;;;;;5007581;28;20053;-72
2022/07/08 10:15:43;;;;;;;4.38;1.80;;;16.70;99.90;;;;;;5032576;28;20058;-72
2022/07/08 10:18:18;;;;;;;6.78;1.88;;;16.60;99.90;;;;;;5014961;28;20041;-71
2022/07/08 10:20:49;;;;;;;8.75;2.45;;;16.60;99.90;;;;;;5024589;28;20072;-72
2022/07/08 10:23:27;;;;;;;5.22;1.60;;;16.90;99.90;;;;;;5033233;28;20037;-72
2022/07/08 10:25:57;;;;;;;7.00;1.60;;;17.40;99.90;;;;;;5033422;28;20485;-72
2022/07/08 10:28:38;;;;;;;6.60;1.67;;;17.80;99.90;;;;;;5033193;28;20037;-72
2022/07/08 10:31:24;;;;;;;4.93;1.88;;;17.80;99.90;;;;;;5021332;28;20073;-72
2022/07/08 10:33:58;;;;;;;3.60;1.83;;;17.70;99.90;;;;;;5013926;28;20491;-72
2022/07/08 10:36:25;;;;;;;6.30;2.00;;;17.80;99.90;;;;;;5013951;28;20046;-72
2022/07/08 10:38:54;;;;;;;4.38;1.83;;;17.80;99.90;;;;;;5029421;28;20609;-72
2022/07/08 10:41:26;;;;;;;8.30;1.90;;;17.90;99.90;;;;;;5027537;28;20061;-72
2022/07/08 10:43:55;;;;;;;7.22;2.03;;;18.20;99.90;;;;;;5033388;28;20565;-72
2022/07/08 10:46:24;;;;;;;6.40;2.40;;;18.30;99.90;;;;;;5026664;28;20041;-72
2022/07/08 10:48:58;;;;;;;3.67;1.65;;;18.90;99.90;;;;;;5031600;28;20057;-72
2022/07/08 10:51:25;;;;;;;5.60;1.67;;;19.20;99.90;;;;;;5033363;28;20379;-72
2022/07/08 10:54:09;;;;;;;7.75;2.20;;;19.20;99.90;;;;;;5033432;28;20059;-72
2022/07/08 10:56:45;;;;;;;;;;;18.90;99.90;;;;;;5025061;28;20046;-73
2022/07/08 10:59:33;;;;;;;4.45;2.00;;;18.70;99.90;;;;;;5013412;28;19922;-73
2022/07/08 11:02:07;;;;;;;;;;;18.30;99.90;;;;;;5013907;28;20426;-72
2022/07/08 11:04:34;;;;;;;6.03;2.42;;;18.10;99.90;;;;;;5017998;28;19921;-72
2022/07/08 11:09:55;;;;;;;7.00;2.20;;;18.30;99.90;;;;;;5032833;28;20060;-72
2022/07/08 11:12:25;;;;;;;10.98;2.13;;;18.40;99.90;;;;;;5032970;28;20079;-73
2022/07/08 11:14:54;;;;;;;5.50;1.80;;;18.60;99.90;;;;;;5024607;28;20061;-73
2022/07/08 11:17:27;;;;;;;5.43;1.90;;;18.70;99.90;;;;;;5032929;28;20064;-72
2022/07/08 11:19:56;;;;;;;4.00;2.17;;;18.90;99.90;;;;;;5031681;28;20494;-73
2022/07/08 11:22:24;;;;;;;3.33;1.75;;;19.00;99.90;;;;;;5024366;28;20490;-73
2022/07/08 11:24:55;;;;;;;3.33;1.23;;;18.90;99.90;;;;;;5032763;28;20061;-73
2022/07/08 11:27:27;;;;;;;5.15;2.30;;;18.70;99.90;;;;;;5032132;28;20050;-72
2022/07/08 11:29:55;;;;;;;2.10;1.52;;;18.70;99.90;;;;;;5023948;28;20050;-72
2022/07/08 11:32:24;;;;;;;4.78;1.65;;;19.30;99.90;;;;;;5032414;28;20403;-73
2022/07/08 11:34:52;;;;;;;6.22;1.80;;;19.90;99.90;;;;;;5031987;28;20050;-73
2022/07/08 11:37:19;;;;;;;6.43;2.20;;;20.30;99.90;;;;;;5024275;28;20056;-73
2022/07/08 11:39:46;;;;;;;;;;;20.40;99.90;;;;;;5032992;28;20045;-73
2022/07/08 11:42:14;;;;;;;4.90;1.50;;;20.40;99.90;;;;;;5032145;28;19932;-73
2022/07/08 11:44:45;;;;;;;5.20;1.90;;;20.20;99.90;;;;;;5031785;28;20092;-73
2022/07/08 11:47:17;;;;;;;8.32;1.80;;;19.80;99.90;;;;;;5023748;28;20045;-72
2022/07/08 11:49:45;;;;;;;3.22;2.00;;;19.40;99.90;;;;;;5032356;28;20442;-73
2022/07/08 11:52:16;;;;;;;3.33;1.95;;;18.90;99.90;;;;;;5030783;28;20401;-72
2022/07/08 11:54:46;;;;;;;2.65;1.95;;;18.60;99.90;;;;;;5030891;28;20053;-72
2022/07/08 11:57:13;;;;;;;5.85;1.80;;;18.70;99.90;;;;;;5025066;28;20391;-73
2022/07/08 11:59:44;;;;;;;5.15;2.00;;;19.00;99.90;;;;;;5032046;28;20053;-73
2022/07/08 12:02:11;;;;;;;4.15;1.73;;;19.20;99.90;;;;;;5031115;28;20049;-73
2022/07/08 12:04:42;;;;;;;5.10;1.58;;;19.60;99.90;;;;;;5023796;28;20034;-72
2022/07/08 12:07:26;;;;;;;3.08;1.75;;;19.70;99.90;;;;;;5032005;28;20068;-73
2022/07/08 12:09:57;;;;;;;6.03;2.20;;;19.30;99.90;;;;;;5031143;28;20053;-73
2022/07/08 12:12:33;;;;;;;5.90;1.85;;;19.40;99.90;;;;;;5025225;28;20054;-73
2022/07/08 12:15:11;;;;;;;4.40;1.80;;;19.80;99.90;;;;;;5031280;28;20505;-72
2022/07/08 12:17:38;;;;;;;5.85;1.90;;;19.50;99.90;;;;;;5031597;28;20051;-73
2022/07/08 12:20:05;;;;;;;5.70;1.98;;;19.60;99.90;;;;;;5030622;28;20125;-73
2022/07/08 12:22:45;;;;;;;8.07;1.75;;;19.90;99.90;;;;;;5023476;28;20046;-73
2022/07/08 12:25:14;;;;;;;5.75;1.80;;;20.20;99.90;;;;;;5014020;28;20045;-73
2022/07/08 12:27:41;;;;;;;3.15;1.50;;;20.40;99.90;;;;;;5030761;28;20095;-73
2022/07/08 12:30:09;;;;;;;3.40;1.45;;;20.80;99.90;;;;;;5022892;28;20049;-72
2022/07/08 12:32:38;;;;;;;5.43;1.50;;;21.10;99.90;;;;;;5031511;28;20041;-73
2022/07/08 12:35:07;;;;;;;2.30;1.30;;;21.70;99.90;;;;;;5030321;28;20052;-73
2022/07/08 12:37:34;;;;;;;7.13;1.42;;;22.00;99.90;;;;;;5030708;28;20521;-73
2022/07/08 12:40:18;;;;;;;5.70;1.70;;;21.30;99.90;;;;;;5022802;28;20046;-73
2022/07/08 12:43:04;;;;;;;5.97;1.80;;;20.20;99.90;;;;;;5031431;28;20049;-73
2022/07/08 12:45:31;;;;;;;7.10;2.33;;;19.50;99.90;;;;;;5030562;28;20041;-73
2022/07/08 12:47:59;;;;;;;4.05;2.00;;;19.00;99.90;;;;;;5020203;28;20049;-72
2022/07/08 12:50:27;;;;;;;4.20;1.75;;;18.70;99.90;;;;;;5015657;28;20128;-73
2022/07/08 12:52:54;;;;;;;5.72;1.73;;;18.40;99.90;;;;;;5029998;28;20049;-73